sensor_id;sensor_type;location;lat;lon;timestamp;P1;durP1;ratioP1;P2;durP2;ratioP2
74223;SDS011;62585;49.706;18.216;2022-12-18T00:01:49;28.98;;;9.93;;
74223;SDS011;62585;49.706;18.216;2022-12-18T00:04:18;33.67;;;10.05;;
74223;SDS011;62585;49.706;18.216;2022-12-18T00:06:46;32.40;;;10.45;;
74223;SDS011;62585;49.706;18.216;2022-12-18T00:09:12;24.58;;;9.05;;
74223;SDS011;62585;49.706;18.216;2022-12-18T00:11:38;29.30;;;10.65;;
74223;SDS011;62585;49.706;18.216;2022-12-18T00:14:04;21.60;;;8.27;;
74223;SDS011;62585;49.706;18.216;2022-12-18T00:16:30;25.50;;;8.75;;
74223;SDS011;62585;49.706;18.216;2022-12-18T00:18:58;30.58;;;9.73;;
74223;SDS011;62585;49.706;18.216;2022-12-18T00:21:25;33.40;;;9.07;;
74223;SDS011;62585;49.706;18.216;2022-12-18T00:23:52;25.60;;;9.43;;
74223;SDS011;62585;49.706;18.216;2022-12-18T00:26:19;20.85;;;8.25;;
74223;SDS011;62585;49.706;18.216;2022-12-18T00:28:51;20.65;;;8.40;;
74223;SDS011;62585;49.706;18.216;2022-12-18T00:31:18;29.02;;;9.48;;
74223;SDS011;62585;49.706;18.216;2022-12-18T00:33:46;14.35;;;5.40;;
74223;SDS011;62585;49.706;18.216;2022-12-18T00:36:14;27.00;;;9.82;;
74223;SDS011;62585;49.706;18.216;2022-12-18T00:38:40;43.63;;;12.00;;
74223;SDS011;62585;49.706;18.216;2022-12-18T00:41:06;24.15;;;9.18;;
74223;SDS011;62585;49.706;18.216;2022-12-18T00:43:34;29.02;;;9.45;;
74223;SDS011;62585;49.706;18.216;2022-12-18T00:46:00;22.13;;;8.32;;
74223;SDS011;62585;49.706;18.216;2022-12-18T00:48:26;28.73;;;9.45;;
74223;SDS011;62585;49.706;18.216;2022-12-18T00:50:51;25.67;;;10.13;;
74223;SDS011;62585;49.706;18.216;2022-12-18T00:53:17;25.63;;;9.75;;
74223;SDS011;62585;49.706;18.216;2022-12-18T00:55:43;34.60;;;10.10;;
74223;SDS011;62585;49.706;18.216;2022-12-18T00:58:10;30.13;;;10.57;;
74223;SDS011;62585;49.706;18.216;2022-12-18T01:00:36;19.25;;;5.88;;
74223;SDS011;62585;49.706;18.216;2022-12-18T01:03:03;21.65;;;8.43;;
74223;SDS011;62585;49.706;18.216;2022-12-18T01:05:30;26.05;;;8.15;;
74223;SDS011;62585;49.706;18.216;2022-12-18T01:07:56;24.77;;;7.45;;
74223;SDS011;62585;49.706;18.216;2022-12-18T01:10:23;21.88;;;8.90;;
74223;SDS011;62585;49.706;18.216;2022-12-18T01:12:49;23.33;;;9.85;;
74223;SDS011;62585;49.706;18.216;2022-12-18T01:15:15;23.45;;;7.72;;
74223;SDS011;62585;49.706;18.216;2022-12-18T01:17:41;25.98;;;10.93;;
74223;SDS011;62585;49.706;18.216;2022-12-18T01:20:08;20.20;;;8.80;;
74223;SDS011;62585;49.706;18.216;2022-12-18T01:22:36;25.80;;;8.30;;
74223;SDS011;62585;49.706;18.216;2022-12-18T01:25:02;21.10;;;7.05;;
74223;SDS011;62585;49.706;18.216;2022-12-18T01:27:29;20.23;;;9.70;;
74223;SDS011;62585;49.706;18.216;2022-12-18T01:29:55;27.30;;;8.63;;
74223;SDS011;62585;49.706;18.216;2022-12-18T01:32:21;22.67;;;9.27;;
74223;SDS011;62585;49.706;18.216;2022-12-18T01:34:47;23.70;;;8.25;;
74223;SDS011;62585;49.706;18.216;2022-12-18T01:37:13;15.00;;;5.65;;
74223;SDS011;62585;49.706;18.216;2022-12-18T01:39:38;21.17;;;7.88;;
74223;SDS011;62585;49.706;18.216;2022-12-18T01:42:10;19.92;;;9.20;;
74223;SDS011;62585;49.706;18.216;2022-12-18T01:47:28;16.92;;;8.23;;
74223;SDS011;62585;49.706;18.216;2022-12-18T01:50:13;16.98;;;6.97;;
74223;SDS011;62585;49.706;18.216;2022-12-18T01:52:42;22.15;;;7.28;;
74223;SDS011;62585;49.706;18.216;2022-12-18T01:55:11;26.02;;;9.60;;
74223;SDS011;62585;49.706;18.216;2022-12-18T01:57:38;19.85;;;7.35;;
74223;SDS011;62585;49.706;18.216;2022-12-18T02:00:07;24.50;;;8.65;;
74223;SDS011;62585;49.706;18.216;2022-12-18T02:02:39;24.95;;;8.18;;
74223;SDS011;62585;49.706;18.216;2022-12-18T02:05:06;23.35;;;7.43;;
74223;SDS011;62585;49.706;18.216;2022-12-18T02:18:37;17.40;;;7.05;;
74223;SDS011;62585;49.706;18.216;2022-12-18T02:26:19;22.52;;;7.28;;
74223;SDS011;62585;49.706;18.216;2022-12-18T02:31:21;17.75;;;6.32;;
74223;SDS011;62585;49.706;18.216;2022-12-18T02:33:53;23.50;;;8.98;;
74223;SDS011;62585;49.706;18.216;2022-12-18T02:36:21;20.90;;;7.75;;
74223;SDS011;62585;49.706;18.216;2022-12-18T02:38:49;23.02;;;8.32;;
74223;SDS011;62585;49.706;18.216;2022-12-18T02:41:17;21.35;;;9.05;;
74223;SDS011;62585;49.706;18.216;2022-12-18T02:43:48;27.35;;;8.73;;
74223;SDS011;62585;49.706;18.216;2022-12-18T02:46:24;16.13;;;6.15;;
74223;SDS011;62585;49.706;18.216;2022-12-18T02:49:08;23.67;;;7.47;;
74223;SDS011;62585;49.706;18.216;2022-12-18T02:51:54;14.38;;;7.60;;
74223;SDS011;62585;49.706;18.216;2022-12-18T02:57:23;25.05;;;9.10;;
74223;SDS011;62585;49.706;18.216;2022-12-18T03:02:36;23.08;;;7.45;;
74223;SDS011;62585;49.706;18.216;2022-12-18T03:05:41;19.42;;;7.72;;
74223;SDS011;62585;49.706;18.216;2022-12-18T03:08:14;18.70;;;7.68;;
74223;SDS011;62585;49.706;18.216;2022-12-18T03:10:46;17.15;;;6.50;;
74223;SDS011;62585;49.706;18.216;2022-12-18T03:13:19;19.38;;;8.25;;
74223;SDS011;62585;49.706;18.216;2022-12-18T03:15:50;19.23;;;7.35;;
74223;SDS011;62585;49.706;18.216;2022-12-18T03:18:33;14.98;;;6.57;;
74223;SDS011;62585;49.706;18.216;2022-12-18T03:21:08;14.60;;;6.78;;
74223;SDS011;62585;49.706;18.216;2022-12-18T03:23:40;16.38;;;8.75;;
74223;SDS011;62585;49.706;18.216;2022-12-18T03:26:09;21.42;;;6.90;;
74223;SDS011;62585;49.706;18.216;2022-12-18T03:28:41;16.17;;;7.13;;
74223;SDS011;62585;49.706;18.216;2022-12-18T03:31:11;14.00;;;6.88;;
74223;SDS011;62585;49.706;18.216;2022-12-18T03:36:11;20.30;;;6.80;;
74223;SDS011;62585;49.706;18.216;2022-12-18T03:38:37;21.15;;;7.32;;
74223;SDS011;62585;49.706;18.216;2022-12-18T03:41:04;19.33;;;7.07;;
74223;SDS011;62585;49.706;18.216;2022-12-18T03:46:29;19.02;;;6.45;;
74223;SDS011;62585;49.706;18.216;2022-12-18T03:49:08;23.77;;;8.88;;
74223;SDS011;62585;49.706;18.216;2022-12-18T03:51:47;19.60;;;6.80;;
74223;SDS011;62585;49.706;18.216;2022-12-18T03:54:16;10.82;;;3.80;;
74223;SDS011;62585;49.706;18.216;2022-12-18T03:56:47;15.13;;;5.90;;
74223;SDS011;62585;49.706;18.216;2022-12-18T03:59:18;14.07;;;5.93;;
74223;SDS011;62585;49.706;18.216;2022-12-18T04:01:48;12.55;;;3.83;;
74223;SDS011;62585;49.706;18.216;2022-12-18T04:04:16;17.65;;;5.07;;
74223;SDS011;62585;49.706;18.216;2022-12-18T04:06:45;20.15;;;7.25;;
74223;SDS011;62585;49.706;18.216;2022-12-18T04:09:13;14.43;;;5.47;;
74223;SDS011;62585;49.706;18.216;2022-12-18T04:11:40;23.35;;;9.02;;
74223;SDS011;62585;49.706;18.216;2022-12-18T04:14:09;17.80;;;6.60;;
74223;SDS011;62585;49.706;18.216;2022-12-18T04:16:35;26.13;;;8.57;;
74223;SDS011;62585;49.706;18.216;2022-12-18T04:19:01;22.38;;;6.75;;
74223;SDS011;62585;49.706;18.216;2022-12-18T04:21:27;18.83;;;8.00;;
74223;SDS011;62585;49.706;18.216;2022-12-18T04:23:52;17.10;;;6.85;;
74223;SDS011;62585;49.706;18.216;2022-12-18T04:26:18;20.75;;;7.38;;
74223;SDS011;62585;49.706;18.216;2022-12-18T04:28:44;27.20;;;7.47;;
74223;SDS011;62585;49.706;18.216;2022-12-18T04:31:09;24.08;;;8.05;;
74223;SDS011;62585;49.706;18.216;2022-12-18T04:33:35;18.75;;;7.28;;
74223;SDS011;62585;49.706;18.216;2022-12-18T04:36:01;21.02;;;6.55;;
74223;SDS011;62585;49.706;18.216;2022-12-18T04:38:27;30.38;;;7.93;;
74223;SDS011;62585;49.706;18.216;2022-12-18T04:40:52;17.45;;;7.22;;
74223;SDS011;62585;49.706;18.216;2022-12-18T04:43:18;26.83;;;8.38;;
74223;SDS011;62585;49.706;18.216;2022-12-18T04:45:44;14.10;;;5.38;;
74223;SDS011;62585;49.706;18.216;2022-12-18T04:48:09;12.57;;;5.22;;
74223;SDS011;62585;49.706;18.216;2022-12-18T04:50:35;24.02;;;7.88;;
74223;SDS011;62585;49.706;18.216;2022-12-18T04:53:01;18.52;;;8.02;;
74223;SDS011;62585;49.706;18.216;2022-12-18T04:55:27;25.73;;;8.88;;
74223;SDS011;62585;49.706;18.216;2022-12-18T04:57:53;16.52;;;6.30;;
74223;SDS011;62585;49.706;18.216;2022-12-18T05:00:19;18.42;;;6.85;;
74223;SDS011;62585;49.706;18.216;2022-12-18T05:02:45;17.50;;;7.55;;
74223;SDS011;62585;49.706;18.216;2022-12-18T05:05:11;15.27;;;7.82;;
74223;SDS011;62585;49.706;18.216;2022-12-18T05:07:36;20.98;;;6.55;;
74223;SDS011;62585;49.706;18.216;2022-12-18T05:10:03;20.38;;;9.25;;
74223;SDS011;62585;49.706;18.216;2022-12-18T05:12:28;22.92;;;7.40;;
74223;SDS011;62585;49.706;18.216;2022-12-18T05:14:56;17.17;;;7.78;;
74223;SDS011;62585;49.706;18.216;2022-12-18T05:17:22;24.75;;;8.35;;
74223;SDS011;62585;49.706;18.216;2022-12-18T05:19:47;26.17;;;8.48;;
74223;SDS011;62585;49.706;18.216;2022-12-18T05:22:13;26.65;;;8.65;;
74223;SDS011;62585;49.706;18.216;2022-12-18T05:24:39;19.33;;;7.07;;
74223;SDS011;62585;49.706;18.216;2022-12-18T05:27:04;19.33;;;8.88;;
74223;SDS011;62585;49.706;18.216;2022-12-18T05:29:30;15.65;;;7.70;;
74223;SDS011;62585;49.706;18.216;2022-12-18T05:31:56;21.05;;;7.55;;
74223;SDS011;62585;49.706;18.216;2022-12-18T05:34:22;23.40;;;7.97;;
74223;SDS011;62585;49.706;18.216;2022-12-18T05:36:47;13.82;;;6.00;;
74223;SDS011;62585;49.706;18.216;2022-12-18T05:39:13;23.30;;;9.15;;
74223;SDS011;62585;49.706;18.216;2022-12-18T05:41:39;24.92;;;10.88;;
74223;SDS011;62585;49.706;18.216;2022-12-18T05:44:05;27.33;;;10.18;;
74223;SDS011;62585;49.706;18.216;2022-12-18T05:46:30;12.80;;;7.15;;
74223;SDS011;62585;49.706;18.216;2022-12-18T05:48:58;13.55;;;4.72;;
74223;SDS011;62585;49.706;18.216;2022-12-18T05:51:26;20.23;;;8.43;;
74223;SDS011;62585;49.706;18.216;2022-12-18T05:53:52;14.85;;;6.97;;
74223;SDS011;62585;49.706;18.216;2022-12-18T05:56:19;19.45;;;8.35;;
74223;SDS011;62585;49.706;18.216;2022-12-18T05:58:46;27.55;;;10.05;;
74223;SDS011;62585;49.706;18.216;2022-12-18T06:01:16;12.70;;;5.60;;
74223;SDS011;62585;49.706;18.216;2022-12-18T06:03:43;10.43;;;4.75;;
74223;SDS011;62585;49.706;18.216;2022-12-18T06:06:13;14.02;;;6.15;;
74223;SDS011;62585;49.706;18.216;2022-12-18T06:08:39;22.55;;;9.32;;
74223;SDS011;62585;49.706;18.216;2022-12-18T06:11:04;20.52;;;8.82;;
74223;SDS011;62585;49.706;18.216;2022-12-18T06:13:30;33.15;;;10.10;;
74223;SDS011;62585;49.706;18.216;2022-12-18T06:15:56;16.98;;;8.32;;
74223;SDS011;62585;49.706;18.216;2022-12-18T06:18:21;32.85;;;9.27;;
74223;SDS011;62585;49.706;18.216;2022-12-18T06:20:54;23.92;;;7.32;;
74223;SDS011;62585;49.706;18.216;2022-12-18T06:23:23;22.42;;;8.80;;
74223;SDS011;62585;49.706;18.216;2022-12-18T06:25:49;25.55;;;11.20;;
74223;SDS011;62585;49.706;18.216;2022-12-18T06:28:16;25.92;;;9.85;;
74223;SDS011;62585;49.706;18.216;2022-12-18T06:30:47;23.23;;;9.25;;
74223;SDS011;62585;49.706;18.216;2022-12-18T06:33:14;27.55;;;10.60;;
74223;SDS011;62585;49.706;18.216;2022-12-18T06:35:41;24.73;;;8.85;;
74223;SDS011;62585;49.706;18.216;2022-12-18T06:38:07;14.00;;;5.88;;
74223;SDS011;62585;49.706;18.216;2022-12-18T06:40:33;26.33;;;8.90;;
74223;SDS011;62585;49.706;18.216;2022-12-18T06:42:58;22.08;;;9.85;;
74223;SDS011;62585;49.706;18.216;2022-12-18T06:45:24;23.90;;;9.90;;
74223;SDS011;62585;49.706;18.216;2022-12-18T06:47:50;13.57;;;8.43;;
74223;SDS011;62585;49.706;18.216;2022-12-18T06:50:16;18.95;;;6.82;;
74223;SDS011;62585;49.706;18.216;2022-12-18T06:52:42;21.80;;;7.00;;
74223;SDS011;62585;49.706;18.216;2022-12-18T06:55:09;13.50;;;6.38;;
74223;SDS011;62585;49.706;18.216;2022-12-18T06:57:36;24.98;;;7.47;;
74223;SDS011;62585;49.706;18.216;2022-12-18T07:00:03;15.00;;;7.68;;
74223;SDS011;62585;49.706;18.216;2022-12-18T07:02:30;19.63;;;6.93;;
74223;SDS011;62585;49.706;18.216;2022-12-18T07:04:56;16.95;;;6.97;;
74223;SDS011;62585;49.706;18.216;2022-12-18T07:07:22;20.88;;;7.60;;
74223;SDS011;62585;49.706;18.216;2022-12-18T07:09:49;14.20;;;7.35;;
74223;SDS011;62585;49.706;18.216;2022-12-18T07:14:41;21.27;;;6.60;;
74223;SDS011;62585;49.706;18.216;2022-12-18T07:17:07;15.40;;;6.28;;
74223;SDS011;62585;49.706;18.216;2022-12-18T07:19:33;18.45;;;6.55;;
74223;SDS011;62585;49.706;18.216;2022-12-18T07:21:59;22.67;;;6.82;;
74223;SDS011;62585;49.706;18.216;2022-12-18T07:24:24;25.10;;;6.63;;
74223;SDS011;62585;49.706;18.216;2022-12-18T07:26:50;11.35;;;5.78;;
74223;SDS011;62585;49.706;18.216;2022-12-18T07:29:16;16.30;;;6.53;;
74223;SDS011;62585;49.706;18.216;2022-12-18T07:31:42;18.05;;;6.72;;
74223;SDS011;62585;49.706;18.216;2022-12-18T07:34:11;23.33;;;8.10;;
74223;SDS011;62585;49.706;18.216;2022-12-18T07:36:38;15.95;;;6.20;;
74223;SDS011;62585;49.706;18.216;2022-12-18T07:39:03;21.75;;;6.80;;
74223;SDS011;62585;49.706;18.216;2022-12-18T07:41:29;20.23;;;7.35;;
74223;SDS011;62585;49.706;18.216;2022-12-18T07:43:55;14.88;;;5.40;;
74223;SDS011;62585;49.706;18.216;2022-12-18T07:46:21;20.95;;;7.90;;
74223;SDS011;62585;49.706;18.216;2022-12-18T07:48:47;19.98;;;7.10;;
74223;SDS011;62585;49.706;18.216;2022-12-18T07:51:13;16.70;;;7.25;;
74223;SDS011;62585;49.706;18.216;2022-12-18T07:53:38;11.07;;;4.50;;
74223;SDS011;62585;49.706;18.216;2022-12-18T07:56:07;25.30;;;7.05;;
74223;SDS011;62585;49.706;18.216;2022-12-18T07:58:34;15.55;;;6.10;;
74223;SDS011;62585;49.706;18.216;2022-12-18T08:01:02;22.17;;;8.05;;
74223;SDS011;62585;49.706;18.216;2022-12-18T08:03:35;27.30;;;7.53;;
74223;SDS011;62585;49.706;18.216;2022-12-18T08:06:02;23.55;;;8.27;;
74223;SDS011;62585;49.706;18.216;2022-12-18T08:08:29;29.13;;;7.93;;
74223;SDS011;62585;49.706;18.216;2022-12-18T08:10:56;18.27;;;6.93;;
74223;SDS011;62585;49.706;18.216;2022-12-18T08:13:22;21.42;;;8.80;;
74223;SDS011;62585;49.706;18.216;2022-12-18T08:15:56;18.75;;;6.40;;
74223;SDS011;62585;49.706;18.216;2022-12-18T08:18:22;30.17;;;7.93;;
74223;SDS011;62585;49.706;18.216;2022-12-18T08:20:48;18.60;;;6.47;;
74223;SDS011;62585;49.706;18.216;2022-12-18T08:23:13;18.90;;;9.07;;
74223;SDS011;62585;49.706;18.216;2022-12-18T08:25:39;16.35;;;5.35;;
74223;SDS011;62585;49.706;18.216;2022-12-18T08:28:05;24.05;;;8.15;;
74223;SDS011;62585;49.706;18.216;2022-12-18T08:30:30;23.00;;;6.68;;
74223;SDS011;62585;49.706;18.216;2022-12-18T08:32:56;26.05;;;7.53;;
74223;SDS011;62585;49.706;18.216;2022-12-18T08:35:22;23.23;;;7.05;;
74223;SDS011;62585;49.706;18.216;2022-12-18T08:37:47;22.65;;;8.25;;
74223;SDS011;62585;49.706;18.216;2022-12-18T08:40:14;25.65;;;9.27;;
74223;SDS011;62585;49.706;18.216;2022-12-18T08:42:39;20.38;;;8.10;;
74223;SDS011;62585;49.706;18.216;2022-12-18T08:45:24;12.32;;;5.65;;
74223;SDS011;62585;49.706;18.216;2022-12-18T08:47:50;16.50;;;6.47;;
74223;SDS011;62585;49.706;18.216;2022-12-18T08:50:15;19.70;;;8.00;;
74223;SDS011;62585;49.706;18.216;2022-12-18T08:52:41;19.50;;;6.90;;
74223;SDS011;62585;49.706;18.216;2022-12-18T08:55:07;12.48;;;5.47;;
74223;SDS011;62585;49.706;18.216;2022-12-18T08:57:34;16.05;;;6.57;;
74223;SDS011;62585;49.706;18.216;2022-12-18T09:00:00;11.77;;;6.53;;
74223;SDS011;62585;49.706;18.216;2022-12-18T09:02:26;22.60;;;7.50;;
74223;SDS011;62585;49.706;18.216;2022-12-18T09:04:51;13.98;;;5.43;;
74223;SDS011;62585;49.706;18.216;2022-12-18T09:07:17;8.45;;;3.10;;
74223;SDS011;62585;49.706;18.216;2022-12-18T09:09:43;18.95;;;6.35;;
74223;SDS011;62585;49.706;18.216;2022-12-18T09:12:09;20.63;;;6.47;;
74223;SDS011;62585;49.706;18.216;2022-12-18T09:14:35;15.23;;;5.90;;
74223;SDS011;62585;49.706;18.216;2022-12-18T09:17:01;19.08;;;6.00;;
74223;SDS011;62585;49.706;18.216;2022-12-18T09:19:27;17.63;;;6.68;;
74223;SDS011;62585;49.706;18.216;2022-12-18T09:21:52;21.13;;;6.10;;
74223;SDS011;62585;49.706;18.216;2022-12-18T09:24:18;23.60;;;7.30;;
74223;SDS011;62585;49.706;18.216;2022-12-18T09:26:45;23.63;;;8.90;;
74223;SDS011;62585;49.706;18.216;2022-12-18T09:29:11;14.70;;;6.57;;
74223;SDS011;62585;49.706;18.216;2022-12-18T09:31:37;17.52;;;7.00;;
74223;SDS011;62585;49.706;18.216;2022-12-18T09:34:03;18.73;;;8.52;;
74223;SDS011;62585;49.706;18.216;2022-12-18T09:36:29;19.73;;;6.78;;
74223;SDS011;62585;49.706;18.216;2022-12-18T09:38:55;21.90;;;7.20;;
74223;SDS011;62585;49.706;18.216;2022-12-18T09:41:40;17.52;;;7.93;;
74223;SDS011;62585;49.706;18.216;2022-12-18T09:44:24;14.23;;;6.57;;
74223;SDS011;62585;49.706;18.216;2022-12-18T09:46:53;14.48;;;3.30;;
74223;SDS011;62585;49.706;18.216;2022-12-18T09:49:26;18.73;;;7.43;;
74223;SDS011;62585;49.706;18.216;2022-12-18T09:54:35;8.38;;;4.40;;
74223;SDS011;62585;49.706;18.216;2022-12-18T09:57:05;29.70;;;8.38;;
74223;SDS011;62585;49.706;18.216;2022-12-18T09:59:35;32.25;;;9.90;;
74223;SDS011;62585;49.706;18.216;2022-12-18T10:02:14;26.30;;;9.20;;
74223;SDS011;62585;49.706;18.216;2022-12-18T10:04:45;21.80;;;9.75;;
74223;SDS011;62585;49.706;18.216;2022-12-18T10:15:24;18.75;;;6.97;;
74223;SDS011;62585;49.706;18.216;2022-12-18T10:18:04;31.70;;;9.20;;
74223;SDS011;62585;49.706;18.216;2022-12-18T10:20:44;27.90;;;10.48;;
74223;SDS011;62585;49.706;18.216;2022-12-18T10:23:18;11.00;;;5.82;;
74223;SDS011;62585;49.706;18.216;2022-12-18T10:26:08;20.42;;;6.43;;
74223;SDS011;62585;49.706;18.216;2022-12-18T10:28:36;20.17;;;8.45;;
74223;SDS011;62585;49.706;18.216;2022-12-18T10:31:21;24.70;;;9.35;;
74223;SDS011;62585;49.706;18.216;2022-12-18T10:33:48;17.15;;;7.72;;
74223;SDS011;62585;49.706;18.216;2022-12-18T10:36:14;21.05;;;8.48;;
74223;SDS011;62585;49.706;18.216;2022-12-18T10:38:40;19.25;;;8.80;;
74223;SDS011;62585;49.706;18.216;2022-12-18T10:41:22;26.42;;;8.98;;
74223;SDS011;62585;49.706;18.216;2022-12-18T10:46:44;30.08;;;9.93;;
74223;SDS011;62585;49.706;18.216;2022-12-18T10:49:23;24.08;;;8.88;;
74223;SDS011;62585;49.706;18.216;2022-12-18T10:52:03;21.13;;;6.43;;
74223;SDS011;62585;49.706;18.216;2022-12-18T10:54:32;22.40;;;7.95;;
74223;SDS011;62585;49.706;18.216;2022-12-18T10:59:52;18.48;;;5.43;;
74223;SDS011;62585;49.706;18.216;2022-12-18T11:02:38;30.88;;;11.40;;
74223;SDS011;62585;49.706;18.216;2022-12-18T11:05:26;26.77;;;9.82;;
74223;SDS011;62585;49.706;18.216;2022-12-18T11:07:52;17.90;;;7.47;;
74223;SDS011;62585;49.706;18.216;2022-12-18T11:10:23;20.05;;;8.35;;
74223;SDS011;62585;49.706;18.216;2022-12-18T11:12:53;19.27;;;6.47;;
74223;SDS011;62585;49.706;18.216;2022-12-18T11:15:20;28.25;;;10.50;;
74223;SDS011;62585;49.706;18.216;2022-12-18T11:17:51;16.60;;;7.50;;
74223;SDS011;62585;49.706;18.216;2022-12-18T11:23:04;18.58;;;6.43;;
74223;SDS011;62585;49.706;18.216;2022-12-18T11:25:31;26.42;;;9.32;;
74223;SDS011;62585;49.706;18.216;2022-12-18T11:28:05;27.92;;;9.45;;
74223;SDS011;62585;49.706;18.216;2022-12-18T11:33:35;12.05;;;3.75;;
74223;SDS011;62585;49.706;18.216;2022-12-18T11:36:02;21.58;;;8.43;;
74223;SDS011;62585;49.706;18.216;2022-12-18T11:38:37;17.27;;;9.30;;
74223;SDS011;62585;49.706;18.216;2022-12-18T11:41:06;34.28;;;11.20;;
74223;SDS011;62585;49.706;18.216;2022-12-18T11:46:10;22.10;;;7.70;;
74223;SDS011;62585;49.706;18.216;2022-12-18T11:54:35;27.60;;;9.32;;
74223;SDS011;62585;49.706;18.216;2022-12-18T12:07:49;33.30;;;12.35;;
74223;SDS011;62585;49.706;18.216;2022-12-18T12:10:46;32.50;;;13.48;;
74223;SDS011;62585;49.706;18.216;2022-12-18T12:34:37;30.58;;;10.68;;
74223;SDS011;62585;49.706;18.216;2022-12-18T12:39:48;23.27;;;10.20;;
74223;SDS011;62585;49.706;18.216;2022-12-18T12:42:35;14.68;;;6.80;;
74223;SDS011;62585;49.706;18.216;2022-12-18T12:45:36;23.77;;;9.00;;
74223;SDS011;62585;49.706;18.216;2022-12-18T12:48:11;18.77;;;8.88;;
74223;SDS011;62585;49.706;18.216;2022-12-18T12:50:42;33.97;;;10.63;;
74223;SDS011;62585;49.706;18.216;2022-12-18T12:53:12;24.80;;;9.70;;
74223;SDS011;62585;49.706;18.216;2022-12-18T12:55:49;32.67;;;10.88;;
74223;SDS011;62585;49.706;18.216;2022-12-18T12:58:32;20.02;;;9.27;;
74223;SDS011;62585;49.706;18.216;2022-12-18T13:01:22;20.15;;;8.60;;
74223;SDS011;62585;49.706;18.216;2022-12-18T13:04:21;32.60;;;12.15;;
74223;SDS011;62585;49.706;18.216;2022-12-18T13:07:03;22.85;;;9.57;;
74223;SDS011;62585;49.706;18.216;2022-12-18T13:09:36;21.27;;;11.13;;
74223;SDS011;62585;49.706;18.216;2022-12-18T13:15:37;23.98;;;8.30;;
74223;SDS011;62585;49.706;18.216;2022-12-18T13:18:14;21.42;;;8.48;;
74223;SDS011;62585;49.706;18.216;2022-12-18T13:26:31;33.92;;;13.50;;
74223;SDS011;62585;49.706;18.216;2022-12-18T13:36:51;25.58;;;10.02;;
74223;SDS011;62585;49.706;18.216;2022-12-18T13:41:44;27.85;;;11.13;;
74223;SDS011;62585;49.706;18.216;2022-12-18T13:44:12;29.90;;;13.35;;
74223;SDS011;62585;49.706;18.216;2022-12-18T13:46:50;29.92;;;12.10;;
74223;SDS011;62585;49.706;18.216;2022-12-18T13:49:21;28.65;;;11.70;;
74223;SDS011;62585;49.706;18.216;2022-12-18T13:51:51;35.90;;;12.93;;
74223;SDS011;62585;49.706;18.216;2022-12-18T13:57:02;43.22;;;13.88;;
74223;SDS011;62585;49.706;18.216;2022-12-18T13:59:35;38.80;;;14.93;;
74223;SDS011;62585;49.706;18.216;2022-12-18T14:04:44;36.13;;;15.23;;
74223;SDS011;62585;49.706;18.216;2022-12-18T14:07:12;31.73;;;12.75;;
74223;SDS011;62585;49.706;18.216;2022-12-18T14:09:45;35.75;;;12.55;;
74223;SDS011;62585;49.706;18.216;2022-12-18T14:15:21;35.58;;;12.13;;
74223;SDS011;62585;49.706;18.216;2022-12-18T14:17:52;31.35;;;14.55;;
74223;SDS011;62585;49.706;18.216;2022-12-18T14:20:19;48.30;;;16.90;;
74223;SDS011;62585;49.706;18.216;2022-12-18T14:22:46;43.50;;;17.20;;
74223;SDS011;62585;49.706;18.216;2022-12-18T14:25:24;39.45;;;15.40;;
74223;SDS011;62585;49.706;18.216;2022-12-18T14:30:36;41.58;;;16.00;;
74223;SDS011;62585;49.706;18.216;2022-12-18T14:33:05;41.28;;;16.50;;
74223;SDS011;62585;49.706;18.216;2022-12-18T14:35:35;37.00;;;14.20;;
74223;SDS011;62585;49.706;18.216;2022-12-18T14:38:10;42.50;;;16.75;;
74223;SDS011;62585;49.706;18.216;2022-12-18T14:40:42;52.00;;;22.27;;
74223;SDS011;62585;49.706;18.216;2022-12-18T14:43:11;47.45;;;21.10;;
74223;SDS011;62585;49.706;18.216;2022-12-18T14:45:38;52.10;;;20.23;;
74223;SDS011;62585;49.706;18.216;2022-12-18T14:50:41;57.53;;;20.88;;
74223;SDS011;62585;49.706;18.216;2022-12-18T14:53:20;54.05;;;22.42;;
74223;SDS011;62585;49.706;18.216;2022-12-18T14:55:51;47.90;;;20.55;;
74223;SDS011;62585;49.706;18.216;2022-12-18T14:58:18;43.72;;;18.88;;
74223;SDS011;62585;49.706;18.216;2022-12-18T15:00:44;44.17;;;18.80;;
74223;SDS011;62585;49.706;18.216;2022-12-18T15:03:09;52.72;;;20.27;;
74223;SDS011;62585;49.706;18.216;2022-12-18T15:05:35;38.63;;;18.75;;
74223;SDS011;62585;49.706;18.216;2022-12-18T15:08:01;43.13;;;18.05;;
74223;SDS011;62585;49.706;18.216;2022-12-18T15:10:29;49.92;;;18.67;;
74223;SDS011;62585;49.706;18.216;2022-12-18T15:23:26;43.63;;;20.52;;
74223;SDS011;62585;49.706;18.216;2022-12-18T15:25:55;51.25;;;18.80;;
74223;SDS011;62585;49.706;18.216;2022-12-18T15:36:18;33.63;;;15.15;;
74223;SDS011;62585;49.706;18.216;2022-12-18T15:38:46;40.05;;;16.25;;
74223;SDS011;62585;49.706;18.216;2022-12-18T15:41:16;38.17;;;16.45;;
74223;SDS011;62585;49.706;18.216;2022-12-18T15:43:43;34.60;;;14.60;;
74223;SDS011;62585;49.706;18.216;2022-12-18T15:48:41;32.08;;;15.45;;
74223;SDS011;62585;49.706;18.216;2022-12-18T15:51:13;64.07;;;25.13;;
74223;SDS011;62585;49.706;18.216;2022-12-18T15:53:42;58.10;;;20.98;;
74223;SDS011;62585;49.706;18.216;2022-12-18T15:56:11;40.53;;;17.75;;
74223;SDS011;62585;49.706;18.216;2022-12-18T15:58:57;44.50;;;20.13;;
74223;SDS011;62585;49.706;18.216;2022-12-18T16:01:24;39.22;;;19.02;;
74223;SDS011;62585;49.706;18.216;2022-12-18T16:03:52;45.00;;;19.70;;
74223;SDS011;62585;49.706;18.216;2022-12-18T16:06:19;63.05;;;23.48;;
74223;SDS011;62585;49.706;18.216;2022-12-18T16:08:45;61.17;;;27.02;;
74223;SDS011;62585;49.706;18.216;2022-12-18T16:16:43;48.85;;;22.50;;
74223;SDS011;62585;49.706;18.216;2022-12-18T16:19:09;56.42;;;25.60;;
74223;SDS011;62585;49.706;18.216;2022-12-18T16:21:35;36.28;;;17.58;;
74223;SDS011;62585;49.706;18.216;2022-12-18T16:24:01;28.80;;;15.05;;
74223;SDS011;62585;49.706;18.216;2022-12-18T16:26:26;22.60;;;13.10;;
74223;SDS011;62585;49.706;18.216;2022-12-18T16:28:52;36.25;;;13.50;;
74223;SDS011;62585;49.706;18.216;2022-12-18T16:31:18;31.73;;;16.40;;
74223;SDS011;62585;49.706;18.216;2022-12-18T16:33:44;31.50;;;13.70;;
74223;SDS011;62585;49.706;18.216;2022-12-18T16:36:10;22.23;;;12.02;;
74223;SDS011;62585;49.706;18.216;2022-12-18T16:38:36;26.73;;;14.63;;
74223;SDS011;62585;49.706;18.216;2022-12-18T16:41:01;28.75;;;12.93;;
74223;SDS011;62585;49.706;18.216;2022-12-18T16:43:50;30.02;;;13.13;;
74223;SDS011;62585;49.706;18.216;2022-12-18T16:46:17;28.00;;;9.48;;
74223;SDS011;62585;49.706;18.216;2022-12-18T16:48:42;25.60;;;12.90;;
74223;SDS011;62585;49.706;18.216;2022-12-18T16:51:08;20.60;;;8.88;;
74223;SDS011;62585;49.706;18.216;2022-12-18T16:53:34;15.70;;;8.30;;
74223;SDS011;62585;49.706;18.216;2022-12-18T16:55:59;30.02;;;11.80;;
74223;SDS011;62585;49.706;18.216;2022-12-18T16:58:25;31.10;;;11.80;;
74223;SDS011;62585;49.706;18.216;2022-12-18T17:00:54;19.90;;;11.65;;
74223;SDS011;62585;49.706;18.216;2022-12-18T17:03:20;26.05;;;11.00;;
74223;SDS011;62585;49.706;18.216;2022-12-18T17:05:45;36.15;;;17.02;;
74223;SDS011;62585;49.706;18.216;2022-12-18T17:08:11;27.77;;;12.73;;
74223;SDS011;62585;49.706;18.216;2022-12-18T17:10:37;21.38;;;12.10;;